Aérodrome :
LOGIN :

S'inscrire | Disclaimer

   EN    FR    IT 

 










Légende :    VFR   VFR Marginal   IFR   IFR Intensif   IFR Très Intensif
Visi : 
Plafond : 
>= 8 km
>= 3000ft
5 à 8 km
1000 à 3000 ft
1500m à 5 km
500 à 1000 ft
800 à 1500m
200 à 500 ft
< 800m
< 200 ft
Symboles :   Orages  Brouillard  Fortes neiges  Fortes précipitations  Vent > 20 kt
SIGMETs :   Divers  Orages  Givrage  Turbulence  Onde Orograph.  Cendres Volcan.






- Altitude de l'aérodrome : -13 ft
- Code IATA : LEY


EHLE - Lelystad

DERNIER METAR :
  • 071155Z AUTO VRB03KT 9999 NCD 31/11 Q1019 NOSIG

METARs EXPIRÉS :
  • 071125Z AUTO VRB03KT 9999 NCD 31/12 Q1019 NOSIG
  • 071055Z AUTO 08004KT 050V110 9999 NCD 31/11 Q1020 NOSIG
  • 071025Z AUTO 09005KT 050V120 9999 NCD 30/12 Q1020 NOSIG
  • 070955Z AUTO 09003KT 030V150 9999 NCD 29/15 Q1020 NOSIG
  • 070925Z AUTO VRB02KT 9999 NCD 28/17 Q1020 NOSIG

TAF TAF EHLE
Valide du 07 à 12h jusqu'au 08 à 18h UTC


071104Z 0712/0818 09006KT CAVOK
BECMG 0713/0716 34006KT
BECMG 0717/0720 08006KT



MET'MAP, la Météo Aéronautique d'un coup d'oeil ! - Copyright ORBIFLY Décembre 2007 - Disclaimer

ORBIFLY MET'MAP TEAM :

Programmation & Développement : Alexandra Zaïnal
Sur une idée originale de : Baudouin d'Aumeries
Assistance à la programmation : Marc-Olivier Méhu
Soutien technique & logistique : Manuel Goepfert

Contact : metmap@orbifly.com




SOURCES & CREDITS :

   NOAA